METAR LOCAUX

2022/05/19 19:30 LFST 191930Z AUTO 21007KT CAVOK 26/11 Q1020 TEMPO -TSRA SCT070CB
2022/05/19 19:20 EDSB 191920Z 19004KT CAVOK 25/15 Q1019
2022/05/19 19:30 LFGA 191930Z AUTO 23006KT CAVOK 27/13 Q1020
www.noaa.gov

Ne pas utiliser pour préparer ou effectuer un vol: Utilisez la documentation officielle disponible sur aviation.meteo.fr (Aéroweb)


"Le soleil du matin ne dure pas forcément toute la journée."

Animation satellite IR

Meteociel.fr

"Derrière chaque nuage se cache le ciel bleu."

Radar pluie

Infoclimat.fr

"Si tu veux l’arc-en-ciel, tu dois supporter la pluie."
Dolly Parton

Nébulosité (octas)

Meteociel.fr

"Le soleil est souvent obscurci par les nuages et la raison par les passions."
Démophile

Impacts de foudre

www.meteo60.fr

"Celui que frappe la foudre n'entend pas le tonnerre."

Vigilance météo

vigilance-meteo.fr

"Tout nuage n'enfante pas une tempête."
William Shakespeare

TAF locaux

2022/05/19 18:44 TAF AMD LFST 191738Z 1918/2018 22008KT CAVOK PROB30 TEMPO 1920/1924 -TSRA SCT070CB TEMPO 2015/2018 VRB15G30KT SHRA FEW065CB PROB40 TEMPO 2015/2018 1200 TSRA SCT060CB
2022/05/19 18:28 TAF EDSB 191700Z 1918/2018 22004KT CAVOK BECMG 2008/2011 22010KT PROB30 TEMPO 2016/2018 22015G25KT TSRA BKN060CB
www.noaa.gov

Ne pas utiliser pour préparer ou effectuer un vol: Utilisez la documentation officielle disponible sur aviation.meteo.fr (Aéroweb)


"Les jours où le ciel est gris, le soleil n'a pas disparu à tout jamais."
Arnaud Desjardins

Prévisions 7 jours


Meteoblue.com

"Quand les crapauds chantent, le beau temps s'avance !"